Time;durP1;ratioP1;P1;durP2;ratioP2;P2;SDS_P1;SDS_P2;PMS_P1;PMS_P2;Temp;Humidity;BMP_temperature;BMP_pressure;BME280_temperature;BME280_humidity;BME280_pressure;Samples;Min_cycle;Max_cycle;Signal;HPM_P1;HPM_P2
2022/12/25 00:00:12;;;;;;;67.30;23.73;;;;;;;5.06;100.00;141624.94;5030857;28;20480;-60
2022/12/25 00:02:38;;;;;;;52.20;20.17;;;;;;;4.98;100.00;141954.75;5040971;28;20680;-61
2022/12/25 00:05:05;;;;;;;59.67;20.58;;;;;;;4.95;100.00;142644.94;5050262;28;20052;-61
2022/12/25 00:07:31;;;;;;;75.20;23.40;;;;;;;4.91;100.00;143332.75;5049253;28;20447;-61
2022/12/25 00:09:57;;;;;;;52.50;20.42;;;;;;;4.87;100.00;143671.94;5050541;28;20060;-61
2022/12/25 00:12:22;;;;;;;76.70;29.17;;;;;;;4.86;100.00;143669.56;5048713;28;20411;-61
2022/12/25 00:14:47;;;;;;;64.40;27.80;;;;;;;4.92;100.00;142987.63;5030664;28;20037;-61
2022/12/25 00:17:13;;;;;;;71.10;22.10;;;;;;;4.96;100.00;142297.50;5017568;28;20045;-61
2022/12/25 00:19:38;;;;;;;47.65;22.45;;;;;;;4.99;100.00;141260.00;5010746;28;20022;-61
2022/12/25 00:22:04;;;;;;;67.28;22.77;;;;;;;4.98;100.00;140909.13;5011469;28;20425;-61
2022/12/25 00:24:29;;;;;;;93.78;26.58;;;;;;;4.93;100.00;140549.03;5017471;28;20034;-61
2022/12/25 00:26:54;;;;;;;68.60;25.95;;;;;;;4.92;100.00;140198.28;5033008;28;20042;-59
2022/12/25 00:29:20;;;;;;;73.40;24.50;;;;;;;4.93;100.00;139503.84;5020713;28;20094;-59
2022/12/25 00:31:45;;;;;;;62.83;23.45;;;;;;;4.97;100.00;138816.34;5018402;28;20515;-59
2022/12/25 00:34:10;;;;;;;54.00;23.83;;;;;;;5.01;100.00;138127.75;5034190;28;20038;-59
2022/12/25 00:36:36;;;;;;;69.75;25.17;;;;;;;5.05;100.00;137093.25;5024184;28;20040;-59
2022/12/25 00:39:01;;;;;;;79.95;29.08;;;;;;;5.18;100.00;135031.19;5014751;28;20030;-59
2022/12/25 00:44:12;;;;;;;73.93;27.17;;;;;;;5.44;100.00;130909.94;5020682;28;20048;-59
2022/12/25 00:46:38;;;;;;;72.03;30.05;;;;;;;5.53;100.00;128842.13;5013264;28;20619;-59
2022/12/25 00:49:04;;;;;;;89.03;32.63;;;;;;;5.61;100.00;127120.31;5014162;28;20033;-59
2022/12/25 00:51:29;;;;;;;68.82;25.55;;;;;;;5.71;100.00;125402.84;5013075;28;20520;-59
2022/12/25 00:53:55;;;;;;;85.57;27.70;;;;;;;5.78;100.00;124024.94;5014458;28;20022;-59
2022/12/25 00:56:20;;;;;;;66.63;24.45;;;;;;;5.88;100.00;122655.28;5012488;28;20563;-59
2022/12/25 00:58:46;;;;;;;75.32;31.65;;;;;;;6.00;100.00;120942.25;5014539;28;20026;-59
2022/12/25 01:01:11;;;;;;;63.53;27.48;;;;;;;6.13;100.00;118881.94;5013107;28;20064;-59
2022/12/25 01:03:36;;;;;;;59.63;24.67;;;;;;;6.18;100.00;117849.91;5014074;28;20021;-59
2022/12/25 01:06:05;;;;;;;55.00;24.98;;;;;;;6.22;100.00;117163.19;5012449;28;20038;-59
2022/12/25 01:08:34;;;;;;;90.75;29.05;;;;;;;6.31;100.00;116138.00;5014363;28;20032;-59
2022/12/25 01:11:05;;;;;;;105.50;25.80;;;;;;;6.34;100.00;115449.44;5012026;28;20049;-59
2022/12/25 01:13:33;;;;;;;54.00;23.50;;;;;;;6.39;100.00;114763.78;5013809;28;20041;-59
2022/12/25 01:16:04;;;;;;;55.40;21.03;;;;;;;6.39;100.00;114417.69;5019411;28;20038;-59
2022/12/25 01:18:29;;;;;;;55.95;24.08;;;;;;;6.43;100.00;113730.19;5033565;28;20159;-58
2022/12/25 01:20:55;;;;;;;45.20;22.00;;;;;;;6.43;100.00;113730.19;5032388;28;20087;-58
2022/12/25 01:23:20;;;;;;;54.85;23.48;;;;;;;6.48;100.00;113739.50;5027768;28;20025;-59
2022/12/25 01:25:45;;;;;;;60.65;23.73;;;;;;;6.49;100.00;113394.34;5031529;28;20040;-59
2022/12/25 01:28:11;;;;;;;50.67;20.95;;;;;;;6.55;100.00;113404.56;5033414;28;20045;-59
2022/12/25 01:30:36;;;;;;;43.85;19.35;;;;;;;6.55;100.00;113404.56;5031317;28;20472;-58
2022/12/25 01:33:02;;;;;;;49.03;19.42;;;;;;;6.55;100.00;113752.53;5028566;28;20013;-60
2022/12/25 01:35:27;;;;;;;51.85;20.30;;;;;;;6.59;100.00;113760.00;5011622;28;20037;-57
2022/12/25 01:37:52;;;;;;;57.90;23.38;;;;;;;6.56;100.00;114101.50;5014047;28;20034;-59
2022/12/25 01:40:18;;;;;;;36.45;17.08;;;;;;;6.73;100.00;114131.44;5013350;28;20029;-59
2022/12/25 01:42:43;;;;;;;35.70;17.15;;;;;;;6.74;100.00;114481.47;5012261;28;20046;-58
2022/12/25 01:45:36;;;;;;;52.90;20.20;;;;;;;6.77;100.00;114486.16;5013323;28;20029;-59
2022/12/25 01:48:05;;;;;;;45.92;17.70;;;;;;;6.78;100.00;114488.03;5011629;28;20042;-59
2022/12/25 01:50:31;;;;;;;;;;;;;;;6.80;100.00;114840.03;5013003;28;20380;-59
2022/12/25 01:52:57;;;;;;;62.45;19.60;;;;;;;6.82;100.00;115190.16;5013172;28;20012;-59
2022/12/25 01:55:23;;;;;;;53.22;20.70;;;;;;;6.87;100.00;115199.63;5031570;28;20683;-59
2022/12/25 01:57:49;;;;;;;53.38;19.85;;;;;;;6.90;100.00;115552.69;5031799;28;20099;-59
2022/12/25 02:00:15;;;;;;;41.38;16.38;;;;;;;6.92;100.00;115556.50;5022822;28;20026;-59
2022/12/25 02:02:41;;;;;;;40.22;16.00;;;;;;;6.92;100.00;115556.50;5030302;28;20386;-59
2022/12/25 02:05:21;;;;;;;37.67;16.85;;;;;;;7.02;100.00;115573.56;5032712;28;20526;-59
2022/12/25 02:07:47;;;;;;;54.78;18.13;;;;;;;7.02;100.00;116269.53;5031250;28;20080;-59
2022/12/25 02:10:13;;;;;;;28.85;14.68;;;;;;;7.04;100.00;116967.56;5025937;28;20560;-59
2022/12/25 02:12:40;;;;;;;60.97;17.98;;;;;;;7.03;100.00;118008.63;5011526;28;20041;-59
2022/12/25 02:15:11;;;;;;;33.92;15.43;;;;;;;6.99;100.00;119393.78;5012791;28;20021;-59
2022/12/25 02:17:52;;;;;;;32.22;17.23;;;;;;;7.01;100.00;120787.22;5011219;28;20057;-59
2022/12/25 02:20:31;;;;;;;49.22;17.88;;;;;;;7.02;100.00;122181.16;5017487;28;20025;-58
2022/12/25 02:23:11;;;;;;;34.35;14.73;;;;;;;7.03;100.00;123228.47;5030593;28;20073;-59
2022/12/25 02:26:12;;;;;;;35.55;15.13;;;;;;;7.10;100.00;123938.06;5026604;28;20469;-59
2022/12/25 02:28:49;;;;;;;40.22;16.00;;;;;;;7.15;100.00;124296.53;5012846;28;20117;-59
2022/12/25 02:31:41;;;;;;;43.60;15.07;;;;;;;7.19;100.00;124653.03;5011022;28;20045;-59
2022/12/25 02:34:40;;;;;;;39.30;15.45;;;;;;;7.20;100.00;125699.28;5016471;28;20045;-58
2022/12/25 02:37:17;;;;;;;39.75;15.73;;;;;;;7.22;100.00;126401.44;5030717;28;20700;-59
2022/12/25 02:39:57;;;;;;;43.72;14.80;;;;;;;7.24;100.00;127102.75;5032029;28;20032;-61
2022/12/25 03:08:19;;;;;;;31.90;14.32;;;;;;;7.39;100.00;133063.78;5010306;28;20188;-60
2022/12/25 03:13:42;;;;;;;36.80;14.40;;;;;;;7.43;100.00;133771.00;5011970;28;20072;-59
2022/12/25 03:18:54;;;;;;;38.03;14.63;;;;;;;7.46;100.00;135175.00;5025973;28;20087;-59
2022/12/25 03:27:02;;;;;;;26.58;13.82;;;;;;;7.54;100.00;136590.84;4997931;28;20084;-59
2022/12/25 03:32:57;;;;;;;31.88;14.60;;;;;;;7.64;100.00;135563.47;5013241;28;20103;-60
2022/12/25 03:35:46;;;;;;;35.72;15.25;;;;;;;7.68;100.00;135571.28;5030854;28;20029;-59
2022/12/25 03:39:01;;;;;;;36.47;14.73;;;;;;;7.75;100.00;135586.94;5029419;28;20097;-59
2022/12/25 04:37:10;;;;;;;36.25;11.77;;;;;;;7.61;100.00;162555.88;5028719;28;20108;-59
2022/12/25 04:39:36;;;;;;;23.08;13.07;;;;;;;7.63;100.00;162561.22;5029493;28;20018;-59
2022/12/25 04:42:01;;;;;;;34.20;11.70;;;;;;;7.59;100.00;162550.47;5028816;28;20041;-58
2022/12/25 04:44:26;;;;;;;42.47;13.30;;;;;;;7.50;100.00;162524.88;5028727;28;20024;-59
2022/12/25 04:46:52;;;;;;;31.58;13.80;;;;;;;7.53;100.00;162534.31;5009172;28;20100;-59
2022/12/25 04:49:17;;;;;;;28.13;13.82;;;;;;;7.50;100.00;162526.19;5010504;28;20044;-59
2022/12/25 04:51:42;;;;;;;29.77;13.90;;;;;;;7.50;100.00;162526.19;5008934;28;20493;-59
2022/12/25 04:54:08;;;;;;;25.50;12.15;;;;;;;7.61;100.00;162555.88;5010167;28;20433;-58
2022/12/25 04:56:33;;;;;;;24.58;12.63;;;;;;;7.67;100.00;162569.31;5009107;28;20061;-59
2022/12/25 04:58:58;;;;;;;21.60;13.55;;;;;;;7.74;100.00;162588.19;5010092;28;20029;-60
2022/12/25 05:01:24;;;;;;;26.13;15.02;;;;;;;7.79;100.00;162601.66;5028516;28;20038;-61
2022/12/25 05:03:49;;;;;;;21.80;12.30;;;;;;;7.79;100.00;162601.66;5030392;28;20034;-61
2022/12/25 05:06:15;;;;;;;25.58;12.90;;;;;;;7.77;100.00;162596.28;5027799;28;20038;-59
2022/12/25 05:08:40;;;;;;;30.77;13.52;;;;;;;7.84;100.00;162613.78;5029777;28;20068;-61
2022/12/25 05:11:11;;;;;;;21.35;13.85;;;;;;;7.87;100.00;162623.22;5032152;28;20041;-62
2022/12/25 05:13:37;;;;;;;29.73;10.52;;;;;;;7.93;100.00;162638.03;5028344;28;20032;-59
2022/12/25 05:16:07;;;;;;;18.38;10.77;;;;;;;7.98;100.00;162651.50;5015571;28;20117;-59
2022/12/25 05:18:33;;;;;;;19.35;10.75;;;;;;;7.98;100.00;162650.19;5014454;28;20026;-59
2022/12/25 05:20:58;;;;;;;27.65;12.48;;;;;;;8.00;100.00;162655.59;5017901;28;20064;-59
2022/12/25 05:23:24;;;;;;;24.58;10.88;;;;;;;8.05;100.00;162669.03;5029576;28;20037;-59
2022/12/25 05:25:49;;;;;;;17.00;9.93;;;;;;;8.07;100.00;162674.44;5012442;28;20053;-59
2022/12/25 05:28:15;;;;;;;28.00;13.00;;;;;;;8.08;100.00;162677.09;5029158;28;20021;-59
2022/12/25 05:30:40;;;;;;;31.67;13.25;;;;;;;8.11;100.00;162685.19;5031375;28;20473;-59
2022/12/25 05:33:05;;;;;;;17.88;9.98;;;;;;;8.11;100.00;162685.19;5010581;28;20076;-59
2022/12/25 05:35:31;;;;;;;22.45;12.02;;;;;;;8.14;100.00;162693.31;5012306;28;20535;-58
2022/12/25 05:37:56;;;;;;;15.88;11.15;;;;;;;8.10;100.00;162683.88;5024579;28;20025;-59
2022/12/25 05:40:21;;;;;;;30.52;14.60;;;;;;;8.09;100.00;162679.81;5013433;28;20088;-59
2022/12/25 05:42:47;;;;;;;21.95;10.52;;;;;;;8.14;100.00;162691.94;5012118;28;20045;-60
2022/12/25 05:45:12;;;;;;;35.95;15.35;;;;;;;8.12;100.00;162687.91;5012802;28;20088;-59
2022/12/25 05:47:38;;;;;;;23.60;11.88;;;;;;;8.08;100.00;162677.09;5012347;28;20046;-59
2022/12/25 05:50:03;;;;;;;20.73;10.95;;;;;;;8.09;100.00;162679.81;5014743;28;20374;-59
2022/12/25 05:52:33;;;;;;;22.80;12.48;;;;;;;8.02;100.00;162662.31;5011835;28;20412;-58
2022/12/25 05:54:59;;;;;;;25.10;11.55;;;;;;;7.94;100.00;162642.06;5012956;28;20132;-59
2022/12/25 05:57:28;;;;;;;31.15;12.85;;;;;;;7.94;100.00;162642.06;5010817;28;20447;-59
2022/12/25 05:59:53;;;;;;;14.02;8.57;;;;;;;7.83;100.00;162612.44;5012861;28;20029;-59
2022/12/25 06:02:18;;;;;;;18.83;9.90;;;;;;;7.73;100.00;162585.47;5011709;28;20042;-59
2022/12/25 06:04:44;;;;;;;16.58;11.80;;;;;;;7.68;100.00;162572.03;5030164;28;20029;-59
2022/12/25 06:07:09;;;;;;;24.83;10.38;;;;;;;7.58;100.00;162547.75;5030571;28;20059;-59
2022/12/25 06:09:34;;;;;;;19.00;10.80;;;;;;;7.55;100.00;162539.72;5033186;28;20029;-59
2022/12/25 06:12:00;;;;;;;21.33;11.23;;;;;;;7.55;100.00;162539.72;5030384;28;20061;-59
2022/12/25 06:14:25;;;;;;;17.75;11.40;;;;;;;7.56;100.00;162541.03;5029533;28;20079;-59
2022/12/25 06:16:52;;;;;;;18.92;11.10;;;;;;;7.55;100.00;162539.72;5011581;28;20409;-59
2022/12/25 06:19:18;;;;;;;19.27;12.30;;;;;;;7.55;100.00;162539.72;5011907;28;20517;-59
2022/12/25 06:21:44;;;;;;;25.15;13.00;;;;;;;7.57;100.00;162545.06;5012074;28;20125;-59
2022/12/25 06:24:09;;;;;;;41.70;13.18;;;;;;;7.57;100.00;162545.06;5012696;28;20014;-59
2022/12/25 06:26:35;;;;;;;22.67;12.05;;;;;;;7.62;100.00;162557.19;5011496;28;20052;-59
2022/12/25 06:29:00;;;;;;;20.98;13.05;;;;;;;7.63;100.00;162561.22;5013226;28;20570;-60
2022/12/25 06:31:25;;;;;;;25.52;11.32;;;;;;;7.65;100.00;162563.94;5023219;28;20045;-59
2022/12/25 06:33:51;;;;;;;16.55;14.35;;;;;;;7.65;100.00;162563.94;5026421;28;20026;-59
2022/12/25 06:36:20;;;;;;;28.95;14.73;;;;;;;7.68;100.00;162573.34;5029971;28;20360;-59
2022/12/25 06:38:45;;;;;;;25.08;13.52;;;;;;;7.70;100.00;162577.44;5032565;28;20033;-59
2022/12/25 06:41:14;;;;;;;25.30;12.23;;;;;;;7.73;100.00;162585.47;5030560;28;20393;-59
2022/12/25 06:43:39;;;;;;;19.23;10.50;;;;;;;7.71;100.00;162581.47;5030957;28;20064;-59
2022/12/25 06:46:10;;;;;;;18.90;10.63;;;;;;;7.71;100.00;162581.47;5030302;28;20045;-58
2022/12/25 06:48:38;;;;;;;24.45;14.07;;;;;;;7.75;100.00;162590.88;5030265;28;20100;-59
2022/12/25 06:51:03;;;;;;;22.60;12.60;;;;;;;7.77;100.00;162596.28;5029574;28;20504;-59
2022/12/25 06:53:29;;;;;;;21.42;13.00;;;;;;;7.81;100.00;162607.06;5032161;28;20043;-59
2022/12/25 06:56:15;;;;;;;18.50;12.45;;;;;;;7.82;100.00;162609.75;5030396;28;20574;-59
2022/12/25 06:58:46;;;;;;;22.75;15.27;;;;;;;7.87;100.00;162623.22;5031614;28;20036;-60
2022/12/25 07:01:17;;;;;;;34.25;13.18;;;;;;;7.85;100.00;162617.84;5023990;28;20107;-60
2022/12/25 07:03:45;;;;;;;26.60;14.43;;;;;;;7.92;100.00;162635.34;5014304;28;20030;-59
2022/12/25 07:06:10;;;;;;;27.42;15.43;;;;;;;7.98;100.00;162651.50;5013534;28;20073;-59
2022/12/25 07:08:35;;;;;;;33.22;13.70;;;;;;;7.98;100.00;162651.50;5021066;28;20072;-60
2022/12/25 07:11:01;;;;;;;23.00;13.95;;;;;;;7.98;100.00;162650.19;5009435;28;20501;-59
2022/12/25 07:13:26;;;;;;;22.00;13.15;;;;;;;7.97;100.00;162647.47;5023097;28;20029;-60
2022/12/25 07:15:59;;;;;;;22.45;12.88;;;;;;;8.04;100.00;162666.34;5028126;28;20053;-60
2022/12/25 07:18:25;;;;;;;20.63;12.60;;;;;;;8.07;100.00;162674.44;5032029;28;20075;-60
2022/12/25 07:20:50;;;;;;;13.73;12.32;;;;;;;8.09;100.00;162679.81;5027105;28;20049;-59
2022/12/25 07:23:16;;;;;;;17.52;11.93;;;;;;;8.10;100.00;162682.50;5029351;28;20029;-59
2022/12/25 07:25:41;;;;;;;18.95;12.05;;;;;;;8.12;100.00;162687.91;5022708;28;20030;-59
2022/12/25 07:28:06;;;;;;;24.23;12.95;;;;;;;8.11;100.00;162685.19;5030232;28;20018;-60
2022/12/25 07:30:32;;;;;;;21.67;14.73;;;;;;;8.15;100.00;162694.63;5020582;28;20053;-59
2022/12/25 07:32:57;;;;;;;17.77;10.98;;;;;;;8.15;100.00;162694.63;5022400;28;20025;-59
2022/12/25 07:35:22;;;;;;;24.70;11.40;;;;;;;8.16;100.00;162698.66;5016113;28;20029;-60
2022/12/25 07:37:48;;;;;;;18.35;10.05;;;;;;;8.19;100.00;162706.78;5017703;28;20041;-60
2022/12/25 07:40:13;;;;;;;15.57;9.25;;;;;;;8.23;100.00;162717.53;5010021;28;20484;-59
2022/12/25 07:42:38;;;;;;;20.70;10.48;;;;;;;8.25;100.00;162722.94;5009088;28;20431;-60
2022/12/25 07:45:05;;;;;;;17.38;10.38;;;;;;;8.27;100.00;162726.97;5011318;28;20389;-59
2022/12/25 07:47:30;;;;;;;14.40;9.65;;;;;;;8.30;100.00;162733.75;5009164;28;20116;-60
2022/12/25 07:49:55;;;;;;;21.70;10.88;;;;;;;8.31;100.00;162736.41;5012799;28;20045;-60
2022/12/25 07:52:21;;;;;;;15.90;9.45;;;;;;;8.29;100.00;162732.38;5009712;28;20455;-59
2022/12/25 07:54:46;;;;;;;20.02;12.10;;;;;;;8.33;100.00;162741.81;5012150;28;20041;-60
2022/12/25 07:57:12;;;;;;;22.83;11.05;;;;;;;8.32;100.00;162739.09;5008686;28;20042;-60
2022/12/25 07:59:37;;;;;;;14.20;7.93;;;;;;;8.31;100.00;162736.41;5010822;28;20022;-60
2022/12/25 08:02:03;;;;;;;19.63;9.98;;;;;;;8.32;100.00;162739.09;5008865;28;20087;-60
2022/12/25 08:04:28;;;;;;;16.13;9.68;;;;;;;8.33;100.00;162743.19;5010814;28;20025;-60
2022/12/25 08:06:54;;;;;;;20.08;11.68;;;;;;;8.35;100.00;162747.22;5028636;28;20050;-60
2022/12/25 08:09:19;;;;;;;18.58;9.10;;;;;;;8.37;100.00;162752.63;5030189;28;20505;-59
2022/12/25 08:11:45;;;;;;;16.45;8.07;;;;;;;8.38;100.00;162755.25;5010887;28;20073;-62
2022/12/25 08:14:11;;;;;;;16.90;9.60;;;;;;;8.42;100.00;162766.09;5012520;28;20037;-60
2022/12/25 08:16:40;;;;;;;14.43;8.70;;;;;;;8.44;100.00;162770.13;5012058;28;20041;-60
2022/12/25 08:19:09;;;;;;;12.98;7.88;;;;;;;8.44;100.00;162771.50;5011868;28;20053;-60
2022/12/25 08:21:34;;;;;;;14.65;8.98;;;;;;;8.39;100.00;162757.97;5023341;28;20048;-60
2022/12/25 08:24:01;;;;;;;18.58;9.15;;;;;;;8.48;100.00;162782.28;5029225;28;20017;-60
2022/12/25 08:26:27;;;;;;;20.60;9.48;;;;;;;8.49;100.00;162785.00;5009278;28;20055;-60
2022/12/25 08:28:52;;;;;;;14.43;10.35;;;;;;;8.49;100.00;162785.00;5017547;28;20069;-60
2022/12/25 08:31:26;;;;;;;13.90;9.57;;;;;;;8.52;100.00;162793.09;5010819;28;20092;-60
2022/12/25 08:33:54;;;;;;;13.02;8.30;;;;;;;8.52;100.00;162791.72;5009738;28;20057;-60
2022/12/25 08:36:20;;;;;;;12.80;8.27;;;;;;;8.51;100.00;162790.41;5016093;28;20449;-60
2022/12/25 08:38:46;;;;;;;10.77;7.43;;;;;;;8.48;100.00;162782.28;5015048;28;20026;-60
2022/12/25 08:41:12;;;;;;;21.27;9.13;;;;;;;8.56;100.00;162803.88;5018164;28;20548;-60
2022/12/25 08:43:37;;;;;;;18.30;7.63;;;;;;;8.59;100.00;162809.28;5018032;28;20056;-60
2022/12/25 08:46:03;;;;;;;11.63;7.30;;;;;;;8.61;100.00;162814.63;5012257;28;20049;-60
2022/12/25 08:48:28;;;;;;;17.00;7.95;;;;;;;8.55;100.00;162801.16;5032327;28;20396;-60
2022/12/25 08:50:54;;;;;;;14.40;8.07;;;;;;;8.66;100.00;162828.16;5032400;28;20053;-60
2022/12/25 08:53:20;;;;;;;10.95;6.13;;;;;;;8.69;100.00;162836.22;5022142;28;20026;-60
2022/12/25 08:55:45;;;;;;;10.48;6.93;;;;;;;8.68;100.00;162834.88;5011224;28;20058;-60
2022/12/25 08:58:13;;;;;;;13.23;7.18;;;;;;;8.68;100.00;162833.50;5014271;28;20025;-61
2022/12/25 09:00:38;;;;;;;11.32;6.40;;;;;;;8.65;100.00;162825.44;5025546;28;20025;-60
2022/12/25 09:03:04;;;;;;;14.30;7.05;;;;;;;8.64;100.00;162824.06;5025008;28;20034;-60
2022/12/25 09:05:29;;;;;;;12.05;6.68;;;;;;;8.61;100.00;162814.63;5013958;28;20022;-61
2022/12/25 09:07:54;;;;;;;13.18;8.40;;;;;;;8.61;100.00;162814.63;5033671;28;20424;-60
2022/12/25 09:10:20;;;;;;;12.65;9.43;;;;;;;8.60;100.00;162811.97;5016284;28;20026;-60
2022/12/25 09:12:45;;;;;;;20.80;7.53;;;;;;;8.60;100.00;162811.97;5013845;28;20077;-61
2022/12/25 09:15:11;;;;;;;16.73;8.27;;;;;;;8.63;100.00;162820.03;5023928;28;20053;-60
2022/12/25 09:17:36;;;;;;;15.65;7.75;;;;;;;8.60;100.00;162813.31;5021098;28;20033;-60
2022/12/25 09:20:02;;;;;;;12.75;6.63;;;;;;;8.63;100.00;162821.41;5023751;28;20392;-60
2022/12/25 09:22:27;;;;;;;10.27;6.38;;;;;;;8.62;100.00;162817.34;5016811;28;20038;-61
2022/12/25 09:24:52;;;;;;;11.13;7.97;;;;;;;8.69;100.00;162836.22;5023232;28;20033;-60
2022/12/25 09:27:18;;;;;;;12.20;7.43;;;;;;;8.69;100.00;162837.59;5023643;28;20521;-60
2022/12/25 09:29:43;;;;;;;11.07;6.13;;;;;;;8.71;100.00;162841.63;5032582;28;20051;-60
2022/12/25 09:32:09;;;;;;;19.35;6.72;;;;;;;8.73;100.00;162847.03;5029083;28;20107;-60
2022/12/25 09:34:34;;;;;;;10.48;5.97;;;;;;;8.74;100.00;162849.72;5015072;28;20034;-60
2022/12/25 09:37:00;;;;;;;10.50;5.40;;;;;;;8.71;100.00;162842.94;5015419;28;20037;-60
2022/12/25 09:39:25;;;;;;;11.60;6.75;;;;;;;8.77;100.00;162856.47;5016672;28;20034;-60
2022/12/25 09:41:59;;;;;;;9.63;5.25;;;;;;;8.81;100.00;162868.59;5011949;28;20084;-60
2022/12/25 09:44:29;;;;;;;6.15;5.53;;;;;;;8.86;100.00;162882.06;5023543;28;20559;-60
2022/12/25 09:46:59;;;;;;;11.98;7.00;;;;;;;8.91;100.00;162892.81;5011618;28;20049;-60
2022/12/25 09:49:42;;;;;;;18.67;7.78;;;;;;;8.91;100.00;162892.81;5012396;28;20034;-60
2022/12/25 09:52:14;;;;;;;11.35;5.88;;;;;;;8.91;100.00;162892.81;5017544;28;20547;-61
2022/12/25 09:54:58;;;;;;;7.85;6.28;;;;;;;8.97;100.00;162909.06;5024792;28;20029;-60
2022/12/25 09:57:25;;;;;;;7.53;6.03;;;;;;;9.00;100.00;162917.13;5025670;28;20064;-61
2022/12/25 09:59:52;;;;;;;9.15;5.47;;;;;;;8.99;100.00;162914.41;5021047;28;20623;-61
2022/12/25 10:04:02;;;;;;;6.13;5.30;;;;;;;8.89;100.00;162890.19;5127657;27;20877;-59
2022/12/25 10:06:42;;;;;;;10.18;6.28;;;;;;;8.82;100.00;162871.31;5098573;27;20130;-59
2022/12/25 10:09:22;;;;;;;10.07;5.65;;;;;;;8.83;100.00;162872.63;5045252;28;20033;-59
2022/12/25 10:11:54;;;;;;;14.85;5.93;;;;;;;8.81;100.00;162868.59;5060511;28;20520;-58
2022/12/25 10:14:40;;;;;;;12.07;5.30;;;;;;;8.80;100.00;162865.91;5082495;28;20454;-59
2022/12/25 10:17:24;;;;;;;12.15;6.38;;;;;;;8.81;100.00;162867.22;5078673;28;20041;-58
2022/12/25 10:20:01;;;;;;;12.32;6.00;;;;;;;8.75;100.00;162851.06;5079205;28;20131;-59
2022/12/25 10:22:37;;;;;;;17.08;7.45;;;;;;;8.73;100.00;162847.03;5085170;28;20044;-59
2022/12/25 10:25:05;;;;;;;13.10;5.65;;;;;;;8.71;100.00;162841.63;5074397;28;20056;-59
2022/12/25 10:27:38;;;;;;;9.15;6.07;;;;;;;8.69;100.00;162836.22;5084244;28;20127;-59
2022/12/25 10:30:14;;;;;;;16.77;7.25;;;;;;;8.69;100.00;162836.22;5078251;28;20455;-59
2022/12/25 10:32:39;;;;;;;16.80;8.38;;;;;;;8.64;100.00;162824.06;5079273;28;20040;-58
2022/12/25 10:35:09;;;;;;;7.57;6.05;;;;;;;8.59;100.00;162809.28;5068980;28;20498;-59
2022/12/25 10:37:35;;;;;;;7.18;6.25;;;;;;;8.52;100.00;162793.09;5066025;28;20093;-59
2022/12/25 10:40:01;;;;;;;25.00;9.25;;;;;;;8.49;100.00;162785.00;5065813;28;20032;-58
2022/12/25 10:42:39;;;;;;;14.68;8.48;;;;;;;8.50;100.00;162787.72;5067329;28;20040;-59
2022/12/25 10:45:08;;;;;;;14.98;6.95;;;;;;;8.50;100.00;162786.31;5060430;28;20047;-59
2022/12/25 10:47:37;;;;;;;10.20;8.45;;;;;;;8.46;100.00;162776.84;5065228;28;20040;-58
2022/12/25 10:50:24;;;;;;;16.40;7.97;;;;;;;8.46;100.00;162775.50;5066213;28;20115;-59
2022/12/25 10:53:00;;;;;;;19.20;8.65;;;;;;;8.47;100.00;162779.59;5066418;28;20543;-61
2022/12/25 10:55:26;;;;;;;11.35;8.80;;;;;;;8.43;100.00;162768.78;5067868;28;20637;-60
2022/12/25 10:57:51;;;;;;;13.98;8.30;;;;;;;8.40;100.00;162760.69;5066956;28;20028;-61
2022/12/25 11:00:20;;;;;;;14.95;9.68;;;;;;;8.40;100.00;162762.06;5076687;28;20499;-61
2022/12/25 11:02:45;;;;;;;16.63;8.23;;;;;;;8.37;100.00;162753.94;5073069;28;20053;-61
2022/12/25 11:05:20;;;;;;;15.82;7.80;;;;;;;8.38;100.00;162756.66;5078684;28;20079;-61
2022/12/25 11:07:53;;;;;;;35.58;9.85;;;;;;;8.39;100.00;162757.97;5084986;28;20047;-61
2022/12/25 11:10:22;;;;;;;13.15;7.85;;;;;;;8.32;100.00;162740.47;5078624;28;20032;-61
2022/12/25 11:12:48;;;;;;;15.07;8.80;;;;;;;8.37;100.00;162752.63;5073854;28;20041;-61
2022/12/25 11:15:44;;;;;;;20.52;9.90;;;;;;;8.37;100.00;162752.63;5052695;28;20026;-61
2022/12/25 11:18:19;;;;;;;17.83;11.52;;;;;;;8.29;100.00;162732.38;5035308;28;20037;-58
2022/12/25 11:20:54;;;;;;;12.50;9.63;;;;;;;8.36;100.00;162749.91;5041222;28;20136;-59
2022/12/25 11:23:22;;;;;;;19.55;10.60;;;;;;;8.33;100.00;162741.81;5052547;28;20028;-59
2022/12/25 11:26:00;;;;;;;21.50;12.90;;;;;;;8.32;100.00;162739.09;5064243;28;20131;-59
2022/12/25 11:28:28;;;;;;;24.75;13.73;;;;;;;8.28;100.00;162729.66;5059420;28;20158;-61
2022/12/25 11:31:01;;;;;;;28.38;14.50;;;;;;;8.16;100.00;162697.34;5051324;28;20037;-61
2022/12/25 11:33:36;;;;;;;15.20;11.05;;;;;;;8.22;100.00;162714.88;5053787;28;20056;-61
2022/12/25 11:36:10;;;;;;;15.55;9.70;;;;;;;8.20;100.00;162709.47;5066792;28;20070;-61
2022/12/25 11:38:36;;;;;;;14.23;10.82;;;;;;;8.17;100.00;162701.38;5064891;28;20044;-61
2022/12/25 11:41:03;;;;;;;24.42;11.57;;;;;;;8.27;100.00;162726.97;5065364;28;20094;-61
2022/12/25 11:43:36;;;;;;;18.95;11.32;;;;;;;8.28;100.00;162728.34;5063883;28;20025;-61
2022/12/25 11:46:18;;;;;;;16.67;11.05;;;;;;;8.27;100.00;162726.97;5061317;28;20499;-61
2022/12/25 11:48:54;;;;;;;18.20;12.27;;;;;;;8.29;100.00;162732.38;5054433;28;20124;-61
2022/12/25 11:51:24;;;;;;;12.35;9.63;;;;;;;8.30;100.00;162735.06;5051980;28;20644;-61
2022/12/25 11:53:59;;;;;;;24.38;12.73;;;;;;;8.24;100.00;162720.25;5050738;28;20048;-62
2022/12/25 11:56:29;;;;;;;25.27;10.75;;;;;;;8.23;100.00;162717.53;5043944;28;20605;-61
2022/12/25 11:59:02;;;;;;;18.02;11.23;;;;;;;8.17;100.00;162701.38;5056433;28;20036;-61
2022/12/25 12:01:43;;;;;;;18.17;9.40;;;;;;;8.26;100.00;162724.31;5048317;28;20116;-61
2022/12/25 12:04:22;;;;;;;17.58;10.57;;;;;;;8.22;100.00;162404.00;5051353;28;20051;-61
2022/12/25 12:06:54;;;;;;;;;;;;;;;8.25;100.00;161413.50;5051302;28;20036;-61
2022/12/25 12:09:31;;;;;;;16.83;10.63;;;;;;;8.23;100.00;160506.13;5056869;28;19920;-61
2022/12/25 12:12:17;;;;;;;18.92;9.90;;;;;;;8.29;100.00;158714.34;5058661;28;20102;-61
2022/12/25 12:14:57;;;;;;;18.67;10.23;;;;;;;8.30;100.00;157187.59;5046017;28;20025;-62
2022/12/25 12:17:22;;;;;;;17.77;10.50;;;;;;;8.27;100.00;156598.56;5047780;28;20119;-61
2022/12/25 12:19:48;;;;;;;27.10;11.82;;;;;;;8.24;100.00;155757.00;5040509;28;20080;-61
2022/12/25 12:22:31;;;;;;;15.10;10.43;;;;;;;8.25;100.00;154280.84;5032740;28;20491;-61
2022/12/25 12:25:05;;;;;;;19.40;12.65;;;;;;;8.23;100.00;153222.75;5031395;28;20040;-61
2022/12/25 12:27:36;;;;;;;13.80;10.70;;;;;;;8.28;100.00;150773.97;5046820;28;20045;-61
2022/12/25 12:30:02;;;;;;;16.08;11.75;;;;;;;8.30;100.00;149024.59;5047327;28;20024;-61
2022/12/25 12:32:35;;;;;;;18.42;10.80;;;;;;;8.31;100.00;147621.88;5049559;28;20087;-61
2022/12/25 12:35:15;;;;;;;21.05;11.82;;;;;;;8.33;100.00;146574.09;5050456;28;20446;-61
2022/12/25 12:37:41;;;;;;;21.95;11.48;;;;;;;8.32;100.00;145519.25;5061487;28;20049;-62
2022/12/25 12:40:23;;;;;;;21.17;11.85;;;;;;;8.30;100.00;144813.06;5050798;28;20430;-61
2022/12/25 12:42:49;;;;;;;22.63;13.20;;;;;;;8.31;100.00;143764.69;5050167;28;20477;-61
2022/12/25 12:45:36;;;;;;;21.55;13.23;;;;;;;8.32;100.00;143415.28;5052006;28;20029;-61
2022/12/25 12:48:13;;;;;;;24.38;12.15;;;;;;;8.31;100.00;143062.34;5049729;28;20178;-61
2022/12/25 12:50:40;;;;;;;17.00;11.35;;;;;;;8.35;100.00;142020.25;5048802;28;20032;-61
2022/12/25 12:53:21;;;;;;;18.60;12.27;;;;;;;8.40;100.00;140980.56;5049629;28;20071;-61
2022/12/25 12:55:46;;;;;;;21.92;13.10;;;;;;;8.44;100.00;139588.34;5060873;28;20158;-61
2022/12/25 12:58:29;;;;;;;25.35;13.02;;;;;;;8.45;100.00;138888.91;5059075;28;20108;-61
2022/12/25 13:01:10;;;;;;;25.95;12.35;;;;;;;8.52;100.00;137855.34;5045424;28;20064;-61